createdAt,value
2023-04-20T00:00:10.168Z,2.70
2023-04-20T00:02:40.390Z,3.10
2023-04-20T00:05:08.329Z,2.60
2023-04-20T00:07:35.857Z,2.90
2023-04-20T00:10:07.159Z,2.60
2023-04-20T00:12:33.862Z,2.90
2023-04-20T00:15:00.518Z,2.38
2023-04-20T00:17:27.386Z,2.60
2023-04-20T00:19:54.206Z,2.58
2023-04-20T00:22:21.154Z,2.53
2023-04-20T00:24:47.811Z,2.30
2023-04-20T00:27:14.519Z,2.63
2023-04-20T00:29:41.167Z,2.83
2023-04-20T00:32:07.920Z,2.83
2023-04-20T00:34:34.932Z,3.28
2023-04-20T00:37:01.744Z,2.63
2023-04-20T00:39:28.478Z,2.78
2023-04-20T00:41:55.254Z,2.95
2023-04-20T00:44:21.916Z,2.83
2023-04-20T00:46:48.623Z,2.72
2023-04-20T00:49:15.600Z,3.47
2023-04-20T00:51:43.054Z,3.17
2023-04-20T00:54:09.725Z,3.00
2023-04-20T00:56:38.409Z,3.30
2023-04-20T00:59:08.155Z,3.10
2023-04-20T01:01:35.064Z,2.70
2023-04-20T01:04:01.926Z,2.80
2023-04-20T01:06:29.366Z,2.78
2023-04-20T01:08:57.250Z,3.20
2023-04-20T01:11:23.908Z,3.17
2023-04-20T01:13:50.803Z,2.80
2023-04-20T01:16:17.602Z,3.25
2023-04-20T01:18:47.364Z,2.95
2023-04-20T01:21:16.629Z,2.95
2023-04-20T01:23:43.860Z,2.72
2023-04-20T01:26:13.531Z,2.80
2023-04-20T01:28:40.300Z,3.08
2023-04-20T01:31:09.300Z,3.45
2023-04-20T01:33:36.811Z,3.40
2023-04-20T01:36:04.969Z,2.80
2023-04-20T01:38:34.587Z,2.95
2023-04-20T01:41:04.427Z,3.20
2023-04-20T01:43:31.513Z,3.05
2023-04-20T01:45:59.794Z,2.88
2023-04-20T01:48:26.732Z,3.45
2023-04-20T01:50:53.938Z,3.33
2023-04-20T01:53:20.897Z,3.35
2023-04-20T01:55:51.325Z,3.10
2023-04-20T01:58:18.022Z,3.15
2023-04-20T02:00:44.997Z,3.10
2023-04-20T02:03:11.914Z,3.72
2023-04-20T02:05:38.866Z,3.67
2023-04-20T02:08:05.698Z,3.45
2023-04-20T02:10:32.435Z,3.00
2023-04-20T02:12:59.099Z,3.60
2023-04-20T02:15:25.810Z,3.10
2023-04-20T02:17:52.629Z,3.00
2023-04-20T02:20:20.103Z,2.92
2023-04-20T02:22:46.960Z,3.28
2023-04-20T02:25:15.027Z,3.08
2023-04-20T02:27:42.239Z,2.75
2023-04-20T02:30:11.833Z,3.05
2023-04-20T02:32:38.967Z,3.55
2023-04-20T02:35:05.998Z,3.00
2023-04-20T02:37:32.736Z,3.42
2023-04-20T02:39:59.433Z,3.22
2023-04-20T02:42:27.263Z,3.60
2023-04-20T02:44:56.151Z,3.20
2023-04-20T02:47:22.877Z,3.20
2023-04-20T02:49:52.006Z,3.25
2023-04-20T02:52:19.026Z,4.80
2023-04-20T02:54:46.240Z,3.03
2023-04-20T02:57:13.508Z,4.10
2023-04-20T02:59:40.686Z,3.58
2023-04-20T03:02:24.935Z,3.40
2023-04-20T03:04:53.276Z,3.78
2023-04-20T03:07:21.213Z,3.08
2023-04-20T03:09:48.778Z,3.78
2023-04-20T03:12:22.360Z,3.92
2023-04-20T03:14:59.049Z,4.40
2023-04-20T03:17:40.396Z,3.80
2023-04-20T03:20:09.185Z,3.22
2023-04-20T03:22:36.412Z,3.65
2023-04-20T03:25:03.134Z,4.40
2023-04-20T03:27:48.309Z,4.03
2023-04-20T03:30:16.128Z,4.32
2023-04-20T03:32:45.541Z,4.35
2023-04-20T03:35:12.213Z,4.03
2023-04-20T03:37:40.038Z,4.05
2023-04-20T03:40:09.437Z,4.22
2023-04-20T03:42:37.284Z,4.13
2023-04-20T03:45:06.635Z,4.13
2023-04-20T03:47:33.420Z,4.82
2023-04-20T03:50:00.289Z,3.97
2023-04-20T03:52:27.024Z,3.50
2023-04-20T03:54:53.737Z,4.10
2023-04-20T03:57:20.483Z,4.10
2023-04-20T03:59:47.501Z,3.70
2023-04-20T04:02:18.328Z,3.70
2023-04-20T04:04:46.896Z,3.25
2023-04-20T04:07:13.697Z,4.00
2023-04-20T04:09:41.961Z,4.93
2023-04-20T04:12:09.553Z,4.07
2023-04-20T04:14:36.330Z,4.65
2023-04-20T04:17:03.928Z,4.45
2023-04-20T04:19:33.113Z,5.10
2023-04-20T04:22:00.641Z,4.47
2023-04-20T04:24:28.122Z,5.25
2023-04-20T04:27:06.110Z,5.15
2023-04-20T04:29:38.698Z,5.57
2023-04-20T04:32:09.670Z,5.07
2023-04-20T04:34:37.760Z,5.18
2023-04-20T04:37:04.758Z,5.75
2023-04-20T04:42:22.597Z,5.03
2023-04-20T04:44:49.442Z,5.93
2023-04-20T04:47:23.632Z,5.45
2023-04-20T04:49:51.675Z,5.47
2023-04-20T04:52:18.277Z,5.78
2023-04-20T04:54:45.248Z,6.03
2023-04-20T04:57:11.896Z,5.85
2023-04-20T04:59:38.579Z,5.22
2023-04-20T05:02:05.251Z,5.57
2023-04-20T05:04:32.226Z,6.25
2023-04-20T05:06:59.073Z,6.15
2023-04-20T05:09:26.616Z,6.13
2023-04-20T05:11:53.237Z,6.00
2023-04-20T05:14:19.897Z,5.35
2023-04-20T05:16:46.531Z,5.57
2023-04-20T05:19:13.219Z,6.10
2023-04-20T05:21:39.836Z,6.10
2023-04-20T05:24:07.329Z,5.70
2023-04-20T05:26:33.901Z,6.22
2023-04-20T05:29:00.624Z,5.55
2023-04-20T05:31:27.528Z,6.15
2023-04-20T05:33:54.295Z,5.85
2023-04-20T05:36:20.978Z,5.47
2023-04-20T05:38:47.661Z,6.13
2023-04-20T05:41:14.302Z,6.25
2023-04-20T05:43:41.123Z,6.40
2023-04-20T05:46:07.823Z,6.20
2023-04-20T05:48:34.506Z,6.07
2023-04-20T05:51:01.103Z,5.82
2023-04-20T05:53:27.913Z,6.00
2023-04-20T05:55:54.504Z,7.03
2023-04-20T05:58:21.173Z,6.63
2023-04-20T06:00:47.852Z,6.10
2023-04-20T06:03:14.711Z,6.40
2023-04-20T06:05:41.685Z,5.93
2023-04-20T06:08:08.431Z,6.00
2023-04-20T06:10:35.219Z,6.03
2023-04-20T06:13:01.944Z,6.15
2023-04-20T06:15:28.634Z,6.07
2023-04-20T06:17:55.382Z,5.72
2023-04-20T06:20:22.464Z,5.85
2023-04-20T06:22:49.388Z,6.18
2023-04-20T06:25:16.126Z,6.07
2023-04-20T06:27:43.051Z,6.57
2023-04-20T06:30:10.696Z,6.63
2023-04-20T06:32:38.104Z,6.10
2023-04-20T06:35:06.350Z,6.82
2023-04-20T06:37:33.193Z,7.18
2023-04-20T06:40:00.047Z,7.03
2023-04-20T06:42:27.239Z,6.93
2023-04-20T06:44:56.896Z,7.22
2023-04-20T06:47:23.706Z,6.38
2023-04-20T06:49:50.409Z,6.72
2023-04-20T06:52:17.088Z,7.10
2023-04-20T06:54:43.699Z,6.63
2023-04-20T06:57:10.390Z,6.85
2023-04-20T06:59:37.002Z,6.30
2023-04-20T07:02:03.880Z,6.30
2023-04-20T07:04:30.710Z,6.47
2023-04-20T07:06:57.436Z,6.90
2023-04-20T07:09:24.853Z,6.90
2023-04-20T07:11:51.458Z,7.05
2023-04-20T07:14:18.253Z,6.82
2023-04-20T07:16:44.921Z,6.50
2023-04-20T07:19:11.602Z,6.55
2023-04-20T07:21:38.275Z,6.63
2023-04-20T07:24:05.966Z,6.53
2023-04-20T07:26:32.628Z,6.90
2023-04-20T07:28:59.500Z,6.47
2023-04-20T07:31:26.208Z,7.20
2023-04-20T07:33:52.946Z,6.45
2023-04-20T07:36:21.607Z,7.82
2023-04-20T07:38:49.558Z,6.65
2023-04-20T07:41:16.311Z,6.70
2023-04-20T07:43:44.592Z,7.18
2023-04-20T07:46:20.094Z,6.90
2023-04-20T07:48:46.997Z,6.88
2023-04-20T07:51:13.617Z,6.70
2023-04-20T07:53:40.338Z,6.57
2023-04-20T07:56:07.200Z,7.47
2023-04-20T07:58:34.997Z,7.57
2023-04-20T08:01:01.703Z,7.15
2023-04-20T08:03:29.157Z,8.40
2023-04-20T08:05:56.114Z,8.40
2023-04-20T08:08:22.834Z,8.20
2023-04-20T08:10:49.456Z,7.90
2023-04-20T08:13:16.088Z,8.18
2023-04-20T08:15:42.922Z,9.40
2023-04-20T08:18:11.363Z,7.88
2023-04-20T08:20:38.033Z,8.50
2023-04-20T08:23:04.678Z,8.02
2023-04-20T08:25:32.486Z,7.43
2023-04-20T08:27:59.149Z,7.43
2023-04-20T08:30:27.105Z,7.82
2023-04-20T08:32:53.893Z,7.78
2023-04-20T08:35:20.574Z,7.65
2023-04-20T08:37:47.223Z,7.13
2023-04-20T08:40:13.952Z,6.97
2023-04-20T08:42:40.646Z,7.72
2023-04-20T08:45:07.787Z,6.00
2023-04-20T08:47:35.903Z,6.85
2023-04-20T08:50:04.361Z,7.82
2023-04-20T08:52:32.644Z,7.30
2023-04-20T08:54:59.306Z,8.68
2023-04-20T08:57:26.319Z,8.20
2023-04-20T08:59:53.376Z,8.40
2023-04-20T09:02:20.360Z,7.70
2023-04-20T09:04:49.369Z,7.70
2023-04-20T09:07:21.206Z,7.60
2023-04-20T09:09:55.366Z,7.47
2023-04-20T09:12:22.994Z,7.03
2023-04-20T09:14:49.825Z,7.35
2023-04-20T09:17:18.008Z,7.70
2023-04-20T09:19:45.906Z,7.30
2023-04-20T09:22:13.020Z,8.05
2023-04-20T09:24:41.350Z,7.28
2023-04-20T09:27:18.695Z,7.18
2023-04-20T09:29:58.909Z,7.07
2023-04-20T09:32:28.665Z,7.75
2023-04-20T09:34:56.278Z,8.05
2023-04-20T09:37:23.170Z,6.95
2023-04-20T09:39:50.364Z,8.38
2023-04-20T09:42:17.845Z,8.10
2023-04-20T09:44:44.748Z,8.07
2023-04-20T09:47:18.987Z,8.25
2023-04-20T09:49:49.091Z,9.27
2023-04-20T09:52:21.103Z,7.13
2023-04-20T09:54:47.811Z,8.50
2023-04-20T09:57:15.046Z,8.50
2023-04-20T09:59:47.126Z,9.00
2023-04-20T10:02:14.452Z,8.80
2023-04-20T10:04:58.066Z,8.02
2023-04-20T10:07:31.723Z,8.00
2023-04-20T10:10:12.462Z,7.43
2023-04-20T10:12:53.857Z,7.82
2023-04-20T10:15:24.346Z,8.10
2023-04-20T10:17:51.597Z,8.38
2023-04-20T10:20:26.790Z,7.63
2023-04-20T10:22:55.161Z,8.13
2023-04-20T10:25:27.432Z,8.02
2023-04-20T10:27:54.836Z,7.45
2023-04-20T10:30:22.384Z,7.93
2023-04-20T10:32:49.222Z,8.00
2023-04-20T10:35:16.282Z,8.15
2023-04-20T10:37:52.316Z,8.60
2023-04-20T10:40:29.323Z,9.02
2023-04-20T10:42:55.998Z,9.27
2023-04-20T10:45:34.276Z,8.15
2023-04-20T10:48:10.373Z,9.23
2023-04-20T10:50:37.356Z,8.63
2023-04-20T10:53:04.725Z,8.52
2023-04-20T10:55:31.582Z,9.63
2023-04-20T10:57:58.281Z,9.52
2023-04-20T11:00:28.013Z,9.05
2023-04-20T11:02:56.736Z,9.10
2023-04-20T11:05:27.785Z,9.35
2023-04-20T11:07:58.680Z,9.50
2023-04-20T11:10:38.151Z,9.48
2023-04-20T11:13:04.826Z,9.25
2023-04-20T11:15:35.328Z,9.38
2023-04-20T11:18:12.279Z,8.77
2023-04-20T11:20:53.502Z,8.63
2023-04-20T11:23:21.683Z,8.30
2023-04-20T11:25:52.962Z,9.30
2023-04-20T11:28:19.805Z,9.77
2023-04-20T11:30:47.066Z,8.73
2023-04-20T11:33:14.315Z,8.63
2023-04-20T11:35:42.618Z,8.50
2023-04-20T11:38:09.593Z,8.82
2023-04-20T11:40:36.521Z,6.95
2023-04-20T11:43:04.808Z,7.25
2023-04-20T11:45:36.804Z,8.50
2023-04-20T11:48:05.126Z,8.27
2023-04-20T11:50:31.809Z,6.65
2023-04-20T11:52:58.486Z,6.38
2023-04-20T11:55:25.193Z,6.28
2023-04-20T11:57:51.917Z,6.43
2023-04-20T12:00:19.371Z,6.82
2023-04-20T12:02:47.964Z,6.10
2023-04-20T12:05:15.258Z,6.13
2023-04-20T12:07:42.118Z,6.18
2023-04-20T12:10:09.301Z,6.50
2023-04-20T12:12:36.929Z,6.80
2023-04-20T12:15:03.784Z,6.05
2023-04-20T12:17:30.514Z,6.82
2023-04-20T12:19:57.928Z,4.68
2023-04-20T12:22:24.649Z,5.60
2023-04-20T12:24:51.295Z,5.13
2023-04-20T12:27:18.005Z,4.18
2023-04-20T12:29:44.647Z,4.90
2023-04-20T12:32:11.480Z,5.30
2023-04-20T12:34:38.078Z,4.45
2023-04-20T12:37:04.746Z,4.30
2023-04-20T12:39:31.363Z,4.60
2023-04-20T12:41:58.266Z,4.70
2023-04-20T12:44:24.912Z,5.15
2023-04-20T12:46:51.590Z,4.75
2023-04-20T12:49:18.529Z,5.07
2023-04-20T12:51:45.541Z,4.88
2023-04-20T12:54:12.156Z,4.65
2023-04-20T12:56:38.892Z,5.05
2023-04-20T12:59:05.649Z,4.95
2023-04-20T13:01:32.443Z,5.32
2023-04-20T13:03:59.205Z,6.13
2023-04-20T13:06:27.001Z,6.53
2023-04-20T13:08:53.905Z,6.07
2023-04-20T13:11:20.525Z,6.70
2023-04-20T13:13:47.181Z,6.30
2023-04-20T13:16:14.357Z,7.07
2023-04-20T13:18:41.146Z,6.40
2023-04-20T13:21:08.384Z,6.57
2023-04-20T13:23:35.120Z,7.25
2023-04-20T13:26:01.869Z,7.57
2023-04-20T13:28:28.588Z,7.65
2023-04-20T13:30:57.549Z,5.95
2023-04-20T13:33:24.352Z,6.85
2023-04-20T13:35:51.515Z,7.22
2023-04-20T13:38:18.419Z,6.25
2023-04-20T13:40:46.801Z,6.95
2023-04-20T13:43:13.705Z,6.75
2023-04-20T13:45:40.459Z,6.35
2023-04-20T13:48:07.421Z,6.50
2023-04-20T13:50:34.189Z,5.95
2023-04-20T13:53:03.214Z,7.38
2023-04-20T13:55:31.163Z,6.47
2023-04-20T13:57:57.887Z,6.20
2023-04-20T14:00:26.106Z,6.20
2023-04-20T14:02:52.989Z,5.75
2023-04-20T14:05:19.730Z,5.97
2023-04-20T14:07:46.452Z,5.50
2023-04-20T14:10:13.136Z,4.85
2023-04-20T14:12:40.132Z,6.40
2023-04-20T14:15:07.212Z,5.47
2023-04-20T14:17:33.927Z,5.80
2023-04-20T14:20:00.704Z,6.13
2023-04-20T14:22:34.091Z,6.97
2023-04-20T14:25:00.760Z,6.80
2023-04-20T14:27:27.412Z,6.72
2023-04-20T14:29:54.001Z,6.28
2023-04-20T14:32:20.681Z,6.50
2023-04-20T14:34:47.316Z,5.90
2023-04-20T14:37:13.953Z,6.68
2023-04-20T14:39:40.648Z,5.97
2023-04-20T14:42:07.781Z,7.68
2023-04-20T14:44:34.459Z,7.47
2023-04-20T14:47:02.137Z,8.23
2023-04-20T14:49:29.008Z,7.53
2023-04-20T14:51:55.727Z,7.65
2023-04-20T14:54:22.448Z,8.40
2023-04-20T14:56:49.098Z,7.70
2023-04-20T14:59:15.738Z,8.20
2023-04-20T15:01:54.905Z,8.02
2023-04-20T15:04:28.198Z,8.20
2023-04-20T15:06:55.088Z,9.68
2023-04-20T15:09:21.748Z,9.75
2023-04-20T15:11:48.393Z,7.60
2023-04-20T15:14:15.508Z,8.60
2023-04-20T15:16:42.849Z,7.13
2023-04-20T15:19:09.946Z,9.02
2023-04-20T15:21:37.129Z,9.80
2023-04-20T15:24:04.105Z,8.45
2023-04-20T15:26:31.231Z,7.88
2023-04-20T15:28:58.505Z,8.57
2023-04-20T15:31:26.042Z,8.65
2023-04-20T15:33:52.736Z,9.38
2023-04-20T15:36:20.519Z,10.35
2023-04-20T15:38:47.123Z,9.52
2023-04-20T15:41:13.779Z,9.27
2023-04-20T15:43:40.477Z,9.23
2023-04-20T15:46:07.906Z,8.77
2023-04-20T15:48:34.804Z,8.98
2023-04-20T15:51:01.509Z,9.15
2023-04-20T15:53:28.326Z,9.57
2023-04-20T15:55:55.074Z,8.75
2023-04-20T15:58:22.133Z,9.52
2023-04-20T16:00:48.814Z,9.43
2023-04-20T16:03:15.948Z,10.27
2023-04-20T16:05:42.748Z,10.90
2023-04-20T16:08:09.455Z,9.55
2023-04-20T16:10:36.104Z,9.95
2023-04-20T16:13:03.825Z,10.65
2023-04-20T16:15:30.747Z,9.88
2023-04-20T16:17:58.763Z,10.27
2023-04-20T16:20:25.455Z,10.18
2023-04-20T16:22:52.226Z,10.10
2023-04-20T16:25:23.224Z,10.25
2023-04-20T16:27:51.614Z,10.13
2023-04-20T16:30:18.845Z,10.15
2023-04-20T16:32:45.829Z,8.23
2023-04-20T16:35:12.593Z,10.07
2023-04-20T16:37:39.273Z,10.13
2023-04-20T16:40:06.840Z,9.00
2023-04-20T16:42:34.330Z,8.77
2023-04-20T16:45:01.279Z,9.85
2023-04-20T16:47:28.091Z,9.82
2023-04-20T16:49:54.725Z,9.15
2023-04-20T16:52:21.610Z,8.65
2023-04-20T16:54:48.216Z,8.60
2023-04-20T16:57:15.010Z,9.10
2023-04-20T16:59:42.555Z,10.38
2023-04-20T17:02:10.322Z,9.20
2023-04-20T17:04:37.076Z,10.15
2023-04-20T17:07:04.077Z,9.88
2023-04-20T17:09:30.667Z,10.15
2023-04-20T17:11:59.382Z,10.80
2023-04-20T17:14:26.076Z,10.30
2023-04-20T17:16:54.410Z,10.23
2023-04-20T17:19:21.117Z,11.13
2023-04-20T17:21:47.829Z,9.75
2023-04-20T17:24:14.583Z,10.10
2023-04-20T17:26:41.406Z,11.27
2023-04-20T17:29:08.059Z,10.18
2023-04-20T17:31:34.790Z,9.43
2023-04-20T17:34:01.493Z,9.18
2023-04-20T17:36:28.271Z,10.05
2023-04-20T17:38:55.020Z,9.63
2023-04-20T17:41:21.919Z,10.82
2023-04-20T17:43:50.838Z,11.88
2023-04-20T17:46:17.596Z,11.60
2023-04-20T17:48:44.432Z,11.65
2023-04-20T17:51:13.798Z,11.85
2023-04-20T17:53:40.614Z,11.32
2023-04-20T17:56:07.566Z,12.10
2023-04-20T17:58:34.399Z,11.75
2023-04-20T18:01:01.183Z,12.85
2023-04-20T18:03:28.572Z,12.07
2023-04-20T18:05:55.351Z,11.93
2023-04-20T18:08:23.334Z,13.40
2023-04-20T18:10:50.085Z,11.57
2023-04-20T18:13:16.810Z,11.73
2023-04-20T18:15:43.763Z,13.70
2023-04-20T18:18:10.491Z,13.10
2023-04-20T18:20:37.265Z,11.55
2023-04-20T18:23:04.011Z,11.73
2023-04-20T18:25:30.737Z,13.00
2023-04-20T18:27:57.337Z,12.32
2023-04-20T18:30:24.036Z,12.98
2023-04-20T18:32:50.731Z,14.48
2023-04-20T18:35:19.340Z,15.63
2023-04-20T18:37:46.023Z,12.77
2023-04-20T18:40:15.428Z,11.88
2023-04-20T18:42:42.879Z,11.15
2023-04-20T18:45:10.022Z,10.82
2023-04-20T18:47:36.774Z,11.18
2023-04-20T18:50:03.661Z,11.32
2023-04-20T18:52:33.985Z,11.98
2023-04-20T18:55:01.421Z,12.07
2023-04-20T18:57:28.887Z,11.45
2023-04-20T18:59:56.444Z,12.35
2023-04-20T19:02:23.459Z,12.38
2023-04-20T19:04:51.137Z,11.60
2023-04-20T19:07:18.627Z,12.20
2023-04-20T19:09:45.322Z,11.63
2023-04-20T19:12:12.234Z,11.65
2023-04-20T19:14:38.935Z,9.95
2023-04-20T19:17:07.345Z,11.30
2023-04-20T19:19:34.212Z,10.77
2023-04-20T19:22:01.160Z,10.57
2023-04-20T19:24:27.895Z,10.73
2023-04-20T19:26:54.648Z,11.45
2023-04-20T19:29:21.416Z,9.27
2023-04-20T19:31:48.107Z,8.80
2023-04-20T19:34:15.285Z,7.47
2023-04-20T19:36:42.296Z,8.13
2023-04-20T19:39:09.936Z,8.40
2023-04-20T19:41:36.781Z,7.68
2023-04-20T19:44:06.524Z,8.40
2023-04-20T19:46:33.890Z,7.80
2023-04-20T19:49:01.409Z,7.28
2023-04-20T19:51:28.144Z,6.93
2023-04-20T19:53:54.761Z,7.43
2023-04-20T19:56:21.488Z,7.28
2023-04-20T19:58:48.216Z,8.15
2023-04-20T20:01:15.078Z,6.80
2023-04-20T20:03:43.080Z,6.50
2023-04-20T20:06:10.043Z,6.38
2023-04-20T20:08:36.819Z,5.38
2023-04-20T20:11:04.052Z,6.13
2023-04-20T20:13:30.690Z,5.82
2023-04-20T20:15:58.821Z,7.10
2023-04-20T20:18:25.928Z,7.95
2023-04-20T20:20:52.638Z,8.68
2023-04-20T20:23:19.303Z,7.40
2023-04-20T20:25:46.193Z,8.63
2023-04-20T20:28:12.905Z,8.68
2023-04-20T20:30:41.561Z,9.63
2023-04-20T20:33:08.186Z,10.02
2023-04-20T20:35:35.043Z,9.75
2023-04-20T20:38:01.703Z,9.95
2023-04-20T20:40:28.356Z,10.02
2023-04-20T20:42:55.047Z,9.30
2023-04-20T20:45:22.047Z,10.20
2023-04-20T20:47:49.182Z,9.57
2023-04-20T20:50:16.540Z,9.98
2023-04-20T20:52:43.181Z,11.45
2023-04-20T20:55:10.497Z,10.73
2023-04-20T20:57:37.242Z,10.50
2023-04-20T21:00:09.896Z,10.32
2023-04-20T21:02:40.059Z,10.98
2023-04-20T21:05:07.322Z,10.43
2023-04-20T21:07:33.975Z,11.25
2023-04-20T21:10:00.802Z,10.98
2023-04-20T21:12:27.564Z,10.88
2023-04-20T21:14:54.275Z,11.43
2023-04-20T21:17:20.988Z,12.35
2023-04-20T21:19:47.618Z,11.52
2023-04-20T21:22:14.352Z,12.38
2023-04-20T21:24:41.195Z,12.10
2023-04-20T21:27:07.951Z,11.52
2023-04-20T21:29:34.609Z,10.95
2023-04-20T21:32:01.391Z,10.98
2023-04-20T21:34:28.313Z,11.27
2023-04-20T21:36:55.066Z,11.05
2023-04-20T21:39:21.800Z,11.50
2023-04-20T21:41:48.597Z,12.23
2023-04-20T21:44:15.369Z,11.82
2023-04-20T21:46:42.188Z,11.50
2023-04-20T21:49:08.876Z,11.35
2023-04-20T21:51:35.818Z,11.13
2023-04-20T21:54:02.487Z,11.63
2023-04-20T21:56:29.124Z,13.20
2023-04-20T21:58:55.744Z,12.57
2023-04-20T22:01:22.595Z,12.25
2023-04-20T22:03:49.514Z,12.50
2023-04-20T22:06:16.404Z,12.43
2023-04-20T22:08:43.296Z,12.50
2023-04-20T22:11:10.210Z,11.15
2023-04-20T22:13:37.305Z,11.88
2023-04-20T22:16:04.415Z,12.80
2023-04-20T22:18:31.222Z,11.40
2023-04-20T22:20:58.127Z,11.02
2023-04-20T22:23:24.752Z,10.25
2023-04-20T22:25:51.380Z,11.13
2023-04-20T22:28:18.064Z,10.00
2023-04-20T22:30:44.767Z,10.30
2023-04-20T22:33:11.486Z,11.98
2023-04-20T22:35:38.296Z,11.38
2023-04-20T22:38:05.072Z,11.73
2023-04-20T22:40:31.841Z,12.23
2023-04-20T22:42:58.514Z,10.68
2023-04-20T22:45:25.485Z,12.63
2023-04-20T22:47:52.322Z,12.00
2023-04-20T22:50:19.060Z,11.60
2023-04-20T22:52:46.210Z,11.35
2023-04-20T22:55:12.922Z,11.98
2023-04-20T22:57:39.659Z,11.32
2023-04-20T23:00:10.669Z,11.35
2023-04-20T23:02:38.120Z,12.52
2023-04-20T23:05:05.810Z,12.00
2023-04-20T23:07:33.458Z,12.25
2023-04-20T23:10:01.597Z,12.43
2023-04-20T23:12:29.622Z,12.45
2023-04-20T23:14:56.831Z,11.65
2023-04-20T23:17:23.615Z,12.05
2023-04-20T23:19:51.043Z,11.52
2023-04-20T23:22:17.884Z,12.10
2023-04-20T23:24:44.853Z,11.43
2023-04-20T23:27:11.492Z,12.38
2023-04-20T23:29:38.110Z,11.38
2023-04-20T23:32:05.144Z,11.30
2023-04-20T23:34:31.849Z,10.73
2023-04-20T23:36:58.602Z,10.75
2023-04-20T23:39:25.355Z,11.30
2023-04-20T23:41:52.000Z,10.93
2023-04-20T23:44:18.643Z,9.82
2023-04-20T23:46:46.388Z,11.38
2023-04-20T23:49:13.293Z,10.52
2023-04-20T23:51:40.273Z,11.30
2023-04-20T23:54:06.910Z,10.80
2023-04-20T23:56:33.561Z,11.48
2023-04-20T23:59:00.243Z,11.60
